This is the latest recevied weather packets stored in our database for station/object AG1T-20. If no packets are shown the sender has not sent any weather packets the latest 10 day(s).
| Time | Temp. | Humidity | Pressure | Rain* | Wind** | Luminosity | Snow |
|---|---|---|---|---|---|---|---|
| 1777947605 | 16.11° C | 39% | 1009.2 hPa | 0 mm | - | 7 W/m² | - |
| 1777947005 | 17.22° C | 40% | 1009.2 hPa | 0 mm | - | 14 W/m² | - |
| 1777946405 | 17.22° C | 39% | 1009.2 hPa | 0 mm | - | 23 W/m² | - |
| 1777945805 | 16.67° C | 41% | 1009.4 hPa | 0 mm | - | 23 W/m² | - |
| 1777945205 | 17.22° C | 38% | 1009.4 hPa | 0 mm | - | 27 W/m² | - |
| 1777944605 | 17.78° C | 37% | 1009.4 hPa | 0 mm | - | 29 W/m² | - |
| 1777944005 | 17.78° C | 36% | 1009.4 hPa | 0 mm | - | 32 W/m² | - |
| 1777943405 | 17.78° C | 39% | 1009.4 hPa | 0 mm | - | 34 W/m² | - |
| 1777942805 | 17.78° C | 35% | 1009.4 hPa | 0 mm | - | 38 W/m² | - |
| 1777942205 | 18.33° C | 35% | 1010 hPa | 0 mm | - | 40 W/m² | - |
| 1777941605 | 18.33° C | 35% | 1010 hPa | 0 mm | - | 42 W/m² | - |
| 1777941005 | 18.89° C | 35% | 1010 hPa | 0 mm | - | 40 W/m² | - |
| 1777940405 | 19.44° C | 33% | 1010 hPa | 0 mm | - | 42 W/m² | - |
| 1777939805 | 18.89° C | 31% | 1010 hPa | 0 mm | - | 42 W/m² | - |
| 1777939205 | 18.33° C | 37% | 1010 hPa | 0 mm | - | 41 W/m² | - |
| 1777938605 | 18.89° C | 34% | 1009.3 hPa | 0 mm | - | 44 W/m² | - |
| 1777938005 | 19.44° C | 34% | 1009.3 hPa | 0 mm | - | 47 W/m² | - |
| 1777937405 | 21.67° C | 29% | 1009.3 hPa | 0 mm | - | 218 W/m² | - |
| 1777936805 | 22.22° C | 28% | 1009.3 hPa | 0 mm | - | 255 W/m² | - |
| 1777936205 | 23.89° C | 22% | 1009.3 hPa | 0 mm | - | 293 W/m² | - |
| 1777935605 | 24.44° C | 20% | 1009.3 hPa | 0 mm | - | 302 W/m² | - |
| 1777935005 | 24.44° C | 22% | 1009.5 hPa | 0 mm | - | 330 W/m² | - |
| 1777934405 | 23.89° C | 20% | 1009.5 hPa | 0 mm | - | 361 W/m² | - |
| 1777933804 | 24.44° C | 20% | 1009.5 hPa | 0 mm | - | 395 W/m² | - |
| 1777933205 | 24.44° C | 20% | 1009.5 hPa | 0 mm | - | 427 W/m² | - |
* Rain latest hour (hover to see other rain measurements)
** Current wind speed in m/s (hover to see current wind gust speed)